createdAt,value
2017-07-27T00:01:11.492Z,99941
2017-07-27T00:03:41.795Z,99933
2017-07-27T00:06:11.671Z,99936
2017-07-27T00:08:41.538Z,99932
2017-07-27T00:11:11.768Z,99927
2017-07-27T00:13:41.621Z,99926
2017-07-27T00:16:11.518Z,99918
2017-07-27T00:18:41.791Z,99921
2017-07-27T00:21:11.648Z,99914
2017-07-27T00:23:41.527Z,99906
2017-07-27T00:26:11.944Z,99906
2017-07-27T00:28:41.803Z,99907
2017-07-27T00:31:12.079Z,99906
2017-07-27T00:33:41.963Z,99907
2017-07-27T00:36:12.203Z,99901
2017-07-27T00:38:42.084Z,99908
2017-07-27T00:41:12.352Z,99903
2017-07-27T00:43:42.191Z,99907
2017-07-27T00:46:12.475Z,99901
2017-07-27T00:48:42.340Z,99898
2017-07-27T00:51:12.568Z,99901
2017-07-27T00:53:42.419Z,99894
2017-07-27T00:56:12.629Z,99887
2017-07-27T00:58:42.526Z,99895
2017-07-27T01:01:12.413Z,99892
2017-07-27T01:03:42.614Z,99896
2017-07-27T01:06:12.477Z,99897
2017-07-27T01:08:42.710Z,99889
2017-07-27T01:11:12.795Z,99891
2017-07-27T01:13:42.991Z,99895
2017-07-27T01:16:12.852Z,99895
2017-07-27T01:18:43.048Z,99886
2017-07-27T01:21:12.945Z,99884
2017-07-27T01:23:43.235Z,99880
2017-07-27T01:26:13.201Z,99880
2017-07-27T01:28:43.464Z,99881
2017-07-27T01:31:13.304Z,99884
2017-07-27T01:33:43.591Z,99878
2017-07-27T01:36:13.444Z,99880
2017-07-27T01:38:43.714Z,99869
2017-07-27T01:41:13.567Z,99869
2017-07-27T01:43:43.459Z,99869
2017-07-27T01:46:13.626Z,99864
2017-07-27T01:48:43.522Z,99868
2017-07-27T01:51:13.402Z,99864
2017-07-27T01:53:43.617Z,99866
2017-07-27T01:56:13.476Z,99853
2017-07-27T01:58:43.763Z,99856
2017-07-27T02:01:13.627Z,99851
2017-07-27T02:03:43.518Z,99851
2017-07-27T02:06:14.520Z,99849
2017-07-27T02:08:44.386Z,99843
2017-07-27T02:11:14.562Z,99841
2017-07-27T02:13:44.414Z,99837
2017-07-27T02:16:15.598Z,99830
2017-07-27T02:18:45.467Z,99830
2017-07-27T02:21:15.704Z,99835
2017-07-27T02:23:45.574Z,99827
2017-07-27T02:26:15.499Z,99832
2017-07-27T02:28:45.698Z,99827
2017-07-27T02:31:15.564Z,99826
2017-07-27T02:33:45.459Z,99826
2017-07-27T02:36:15.739Z,99809
2017-07-27T02:38:45.591Z,99822
2017-07-27T02:41:15.462Z,99821
2017-07-27T02:43:45.729Z,99817
2017-07-27T02:46:15.597Z,99820
2017-07-27T02:48:45.494Z,99821
2017-07-27T02:51:15.919Z,99823
2017-07-27T02:53:45.801Z,99808
2017-07-27T02:56:16.076Z,99813
2017-07-27T02:58:46.063Z,99810
2017-07-27T03:01:16.303Z,99811
2017-07-27T03:03:46.174Z,99807
2017-07-27T03:06:16.442Z,99808
2017-07-27T03:08:46.319Z,99798
2017-07-27T03:11:16.601Z,99803
2017-07-27T03:13:46.515Z,99797
2017-07-27T03:16:16.826Z,99792
2017-07-27T03:18:46.707Z,99794
2017-07-27T03:21:16.575Z,99787
2017-07-27T03:23:46.853Z,99788
2017-07-27T03:26:16.697Z,99790
2017-07-27T03:28:46.573Z,99799
2017-07-27T03:31:16.766Z,99784
2017-07-27T03:33:46.619Z,99788
2017-07-27T03:36:16.514Z,99785
2017-07-27T03:38:46.762Z,99778
2017-07-27T03:41:16.605Z,99777
2017-07-27T03:43:46.493Z,99782
2017-07-27T03:46:16.807Z,99778
2017-07-27T03:48:46.659Z,99780
2017-07-27T03:51:16.517Z,99778
2017-07-27T03:53:46.855Z,99782
2017-07-27T03:56:16.730Z,99781
2017-07-27T03:58:46.586Z,99781
2017-07-27T04:01:17.093Z,99773
2017-07-27T04:03:46.965Z,99772
2017-07-27T04:06:17.229Z,99766
2017-07-27T04:08:47.092Z,99775
2017-07-27T04:11:17.369Z,99776
2017-07-27T04:13:47.241Z,99773
2017-07-27T04:16:17.502Z,99770
2017-07-27T04:18:47.400Z,99770
2017-07-27T04:21:17.635Z,99765
2017-07-27T04:23:47.546Z,99762
2017-07-27T04:26:17.433Z,99748
2017-07-27T04:28:47.664Z,99758
2017-07-27T04:31:17.523Z,99759
2017-07-27T04:33:47.410Z,99747
2017-07-27T04:36:17.741Z,99742
2017-07-27T04:38:47.864Z,99748
2017-07-27T04:41:18.203Z,99739
2017-07-27T04:43:48.079Z,99745
2017-07-27T04:46:18.326Z,99745
2017-07-27T04:48:48.182Z,99740
2017-07-27T04:51:18.550Z,99738
2017-07-27T04:53:48.421Z,99743
2017-07-27T04:56:18.694Z,99748
2017-07-27T04:58:48.529Z,99747
2017-07-27T05:01:18.399Z,99738
2017-07-27T05:03:48.606Z,99738
2017-07-27T05:06:18.497Z,99748
2017-07-27T05:08:48.699Z,99736
2017-07-27T05:11:18.592Z,99738
2017-07-27T05:13:48.461Z,99734
2017-07-27T05:16:18.725Z,99741
2017-07-27T05:18:48.587Z,99743
2017-07-27T05:21:18.496Z,99744
2017-07-27T05:23:48.734Z,99734
2017-07-27T05:26:18.706Z,99734
2017-07-27T05:28:49.002Z,99738
2017-07-27T05:31:18.878Z,99743
2017-07-27T05:33:49.136Z,99745
2017-07-27T05:36:19.067Z,99751
2017-07-27T05:38:49.385Z,99737
2017-07-27T05:41:22.870Z,99747
2017-07-27T05:43:53.209Z,99746
2017-07-27T05:46:23.079Z,99744
2017-07-27T05:48:53.326Z,99745
2017-07-27T05:51:23.221Z,99746
2017-07-27T05:53:53.470Z,99746
2017-07-27T05:56:23.384Z,99752
2017-07-27T05:58:53.698Z,99746
2017-07-27T06:01:23.537Z,99742
2017-07-27T06:03:53.839Z,99746
2017-07-27T06:06:23.787Z,99746
2017-07-27T06:08:54.138Z,99739
2017-07-27T06:11:24.053Z,99741
2017-07-27T06:13:54.373Z,99755
2017-07-27T06:16:24.255Z,99751
2017-07-27T06:18:54.558Z,99748
2017-07-27T06:21:24.406Z,99752
2017-07-27T06:23:54.735Z,99747
2017-07-27T06:26:24.632Z,99749
2017-07-27T06:28:54.546Z,99741
2017-07-27T06:31:24.821Z,99740
2017-07-27T06:33:54.679Z,99745
2017-07-27T06:36:24.570Z,99746
2017-07-27T06:38:54.776Z,99754
2017-07-27T06:41:24.623Z,99751
2017-07-27T06:43:54.501Z,99745
2017-07-27T06:46:24.811Z,99750
2017-07-27T06:48:54.695Z,99749
2017-07-27T06:51:24.568Z,99755
2017-07-27T06:53:54.792Z,99758
2017-07-27T06:56:24.646Z,99757
2017-07-27T06:58:54.527Z,99755
2017-07-27T07:01:24.720Z,99763
2017-07-27T07:03:54.630Z,99770
2017-07-27T07:06:24.488Z,99763
2017-07-27T07:08:54.754Z,99767
2017-07-27T07:11:24.623Z,99767
2017-07-27T07:13:54.534Z,99766
2017-07-27T07:16:24.740Z,99762
2017-07-27T07:18:54.662Z,99761
2017-07-27T07:21:24.549Z,99759
2017-07-27T07:23:54.785Z,99761
2017-07-27T07:26:24.629Z,99763
2017-07-27T07:28:54.550Z,99763
2017-07-27T07:31:24.738Z,99770
2017-07-27T07:33:54.612Z,99777
2017-07-27T07:36:24.490Z,99763
2017-07-27T07:38:54.854Z,99754
2017-07-27T07:41:24.714Z,99759
2017-07-27T07:43:54.602Z,99748
2017-07-27T07:46:24.909Z,99741
2017-07-27T07:48:54.757Z,99734
2017-07-27T07:51:25.010Z,99743
2017-07-27T07:53:54.890Z,99732
2017-07-27T07:56:25.086Z,99738
2017-07-27T07:58:55.875Z,99760
2017-07-27T08:01:26.329Z,99774
2017-07-27T08:03:56.193Z,99760
2017-07-27T08:06:26.401Z,99758
2017-07-27T08:09:07.999Z,99748
2017-07-27T08:11:38.276Z,99747
2017-07-27T08:14:08.141Z,99749
2017-07-27T08:16:39.700Z,99758
2017-07-27T08:19:09.709Z,99754
2017-07-27T08:21:39.991Z,99759
2017-07-27T08:24:09.865Z,99766
2017-07-27T08:26:40.704Z,99768
2017-07-27T08:29:10.564Z,99763
2017-07-27T08:31:40.453Z,99770
2017-07-27T08:34:10.669Z,99764
2017-07-27T08:36:40.663Z,99759
2017-07-27T08:39:10.553Z,99758
2017-07-27T08:41:40.807Z,99756
2017-07-27T08:44:10.669Z,99755
2017-07-27T08:46:40.566Z,99755
2017-07-27T08:49:10.794Z,99755
2017-07-27T08:51:40.781Z,99757
2017-07-27T08:54:11.215Z,99763
2017-07-27T08:56:41.090Z,99768
2017-07-27T08:59:11.350Z,99771
2017-07-27T09:01:41.251Z,99770
2017-07-27T09:04:11.474Z,99771
2017-07-27T09:06:41.326Z,99775
2017-07-27T09:09:11.525Z,99765
2017-07-27T09:11:41.369Z,99768
2017-07-27T09:14:11.566Z,99764
2017-07-27T09:16:41.431Z,99773
2017-07-27T09:19:11.653Z,99778
2017-07-27T09:21:41.565Z,99781
2017-07-27T09:24:11.458Z,99778
2017-07-27T09:26:41.703Z,99779
2017-07-27T09:29:11.557Z,99772
2017-07-27T09:31:41.422Z,99766
2017-07-27T09:34:11.710Z,99776
2017-07-27T09:36:41.573Z,99780
2017-07-27T09:39:11.918Z,99733
2017-07-27T09:41:41.775Z,99764
2017-07-27T09:44:12.051Z,99763
2017-07-27T09:46:41.915Z,99763
2017-07-27T09:49:12.129Z,99764
2017-07-27T09:51:41.985Z,99765
2017-07-27T09:54:12.198Z,99781
2017-07-27T09:56:42.193Z,99785
2017-07-27T09:59:12.453Z,99784
2017-07-27T10:01:42.315Z,99777
2017-07-27T10:04:12.731Z,99772
2017-07-27T10:06:42.616Z,99775
2017-07-27T10:09:12.955Z,99771
2017-07-27T10:11:43.010Z,99757
2017-07-27T10:14:13.278Z,99764
2017-07-27T10:16:43.186Z,99769
2017-07-27T10:19:13.403Z,99769
2017-07-27T10:21:43.253Z,99763
2017-07-27T10:24:13.541Z,99766
2017-07-27T10:26:43.437Z,99765
2017-07-27T10:29:13.657Z,99766
2017-07-27T10:31:43.536Z,99752
2017-07-27T10:34:13.457Z,99766
2017-07-27T10:36:43.718Z,99764
2017-07-27T10:39:13.620Z,99748
2017-07-27T10:41:44.786Z,99739
2017-07-27T10:44:14.674Z,99739
2017-07-27T10:46:44.530Z,99739
2017-07-27T10:49:14.819Z,99735
2017-07-27T10:51:44.714Z,99731
2017-07-27T10:54:14.702Z,99728
2017-07-27T10:56:44.983Z,99728
2017-07-27T10:59:14.950Z,99720
2017-07-27T11:01:45.154Z,99736
2017-07-27T11:04:15.089Z,99730
2017-07-27T11:06:45.319Z,99723
2017-07-27T11:09:15.227Z,99735
2017-07-27T11:11:45.414Z,99729
2017-07-27T11:14:15.454Z,99728
2017-07-27T11:16:45.717Z,99744
2017-07-27T11:19:15.591Z,99749
2017-07-27T11:21:45.612Z,99746
2017-07-27T11:24:15.822Z,99745
2017-07-27T11:26:45.664Z,99752
2017-07-27T11:29:15.546Z,99752
2017-07-27T11:31:45.746Z,99748
2017-07-27T11:34:15.686Z,99746
2017-07-27T11:36:45.530Z,99747
2017-07-27T11:39:15.734Z,99750
2017-07-27T11:41:45.601Z,99746
2017-07-27T11:44:15.473Z,99730
2017-07-27T11:46:45.645Z,99732
2017-07-27T11:49:15.505Z,99748
2017-07-27T11:51:45.399Z,99736
2017-07-27T11:54:15.640Z,99748
2017-07-27T11:56:45.455Z,99740
2017-07-27T11:59:15.611Z,99753
2017-07-27T12:01:45.532Z,99759
2017-07-27T12:04:15.399Z,99761
2017-07-27T12:06:45.583Z,99748
2017-07-27T12:09:15.472Z,99743
2017-07-27T12:11:45.644Z,99730
2017-07-27T12:14:15.498Z,99742
2017-07-27T12:16:45.386Z,99738
2017-07-27T12:19:15.611Z,99740
2017-07-27T12:21:45.469Z,99732
2017-07-27T12:24:15.643Z,99744
2017-07-27T12:26:45.501Z,99737
2017-07-27T12:29:15.351Z,99745
2017-07-27T12:31:45.568Z,99747
2017-07-27T12:34:15.526Z,99749
2017-07-27T12:36:46.264Z,99753
2017-07-27T12:39:16.141Z,99752
2017-07-27T12:41:46.329Z,99759
2017-07-27T12:44:16.179Z,99755
2017-07-27T12:46:46.443Z,99758
2017-07-27T12:49:16.307Z,99752
2017-07-27T12:51:46.538Z,99759
2017-07-27T12:54:16.393Z,99760
2017-07-27T12:56:46.767Z,99766
2017-07-27T12:59:16.652Z,99759
2017-07-27T13:01:46.628Z,99765
2017-07-27T13:04:16.823Z,99758
2017-07-27T13:06:46.668Z,99754
2017-07-27T13:09:16.555Z,99767
2017-07-27T13:11:46.744Z,99771
2017-07-27T13:14:16.716Z,99762
2017-07-27T13:16:46.591Z,99774
2017-07-27T13:19:16.816Z,99766
2017-07-27T13:21:46.670Z,99777
2017-07-27T13:24:16.619Z,99786
2017-07-27T13:26:46.837Z,99792
2017-07-27T13:29:16.690Z,99790
2017-07-27T13:31:46.545Z,99799
2017-07-27T13:34:16.768Z,99788
2017-07-27T13:36:46.651Z,99791
2017-07-27T13:39:16.521Z,99796
2017-07-27T13:41:46.748Z,99794
2017-07-27T13:44:16.616Z,99791
2017-07-27T13:46:46.554Z,99789
2017-07-27T13:49:16.760Z,99797
2017-07-27T13:51:46.640Z,99795
2017-07-27T13:54:16.506Z,99798
2017-07-27T13:56:46.745Z,99788
2017-07-27T13:59:16.617Z,99785
2017-07-27T14:01:47.937Z,99785
2017-07-27T14:04:17.776Z,99787
2017-07-27T14:06:47.982Z,99793
2017-07-27T14:09:17.833Z,99795
2017-07-27T14:11:48.026Z,99796
2017-07-27T14:14:17.866Z,99797
2017-07-27T14:16:48.079Z,99795
2017-07-27T14:19:17.920Z,99802
2017-07-27T14:21:48.133Z,99802
2017-07-27T14:24:17.995Z,99804
2017-07-27T14:26:48.368Z,99797
2017-07-27T14:29:18.236Z,99807
2017-07-27T14:31:48.467Z,99808
2017-07-27T14:34:19.220Z,99807
2017-07-27T14:36:49.405Z,99802
2017-07-27T14:39:19.346Z,99799
2017-07-27T14:41:49.598Z,99800
2017-07-27T14:44:19.542Z,99795
2017-07-27T14:46:49.721Z,99791
2017-07-27T14:49:19.590Z,99798
2017-07-27T14:51:49.509Z,99768
2017-07-27T14:54:19.752Z,99787
2017-07-27T14:56:49.610Z,99793
2017-07-27T14:59:19.498Z,99798
2017-07-27T15:01:49.726Z,99802
2017-07-27T15:04:19.597Z,99805
2017-07-27T15:06:49.503Z,99807
2017-07-27T15:09:19.690Z,99802
2017-07-27T15:11:49.548Z,99801
2017-07-27T15:14:19.454Z,99807
2017-07-27T15:16:49.664Z,99817
2017-07-27T15:19:19.496Z,99803
2017-07-27T15:21:49.357Z,99798
2017-07-27T15:24:19.560Z,99794
2017-07-27T15:26:49.445Z,99792
2017-07-27T15:29:19.667Z,99802
2017-07-27T15:31:51.217Z,99808
2017-07-27T15:34:21.478Z,99810
2017-07-27T15:36:51.356Z,99819
2017-07-27T15:39:21.565Z,99820
2017-07-27T15:41:51.451Z,99820
2017-07-27T15:44:21.646Z,99832
2017-07-27T15:46:51.642Z,99829
2017-07-27T15:49:21.530Z,99826
2017-07-27T15:51:51.754Z,99826
2017-07-27T15:54:21.610Z,99826
2017-07-27T15:56:51.563Z,99823
2017-07-27T15:59:21.787Z,99824
2017-07-27T16:01:51.652Z,99827
2017-07-27T16:04:21.555Z,99819
2017-07-27T16:06:51.806Z,99825
2017-07-27T16:09:21.679Z,99828
2017-07-27T16:11:51.556Z,99822
2017-07-27T16:14:21.813Z,99823
2017-07-27T16:16:51.665Z,99818
2017-07-27T16:19:21.530Z,99813
2017-07-27T16:21:51.803Z,99826
2017-07-27T16:24:21.651Z,99827
2017-07-27T16:26:51.583Z,99831
2017-07-27T16:29:21.837Z,99832
2017-07-27T16:31:51.683Z,99825
2017-07-27T16:34:21.561Z,99825
2017-07-27T16:36:51.776Z,99797
2017-07-27T16:39:21.633Z,99800
2017-07-27T16:41:51.545Z,99801
2017-07-27T16:44:21.797Z,99819
2017-07-27T16:46:51.673Z,99810
2017-07-27T16:49:22.153Z,99821
2017-07-27T16:51:52.052Z,99830
2017-07-27T16:54:22.442Z,99835
2017-07-27T16:56:52.297Z,99831
2017-07-27T16:59:22.521Z,99827
2017-07-27T17:01:52.382Z,99835
2017-07-27T17:04:22.596Z,99838
2017-07-27T17:06:52.459Z,99834
2017-07-27T17:09:22.713Z,99849
2017-07-27T17:11:52.586Z,99840
2017-07-27T17:14:22.493Z,99841
2017-07-27T17:16:52.710Z,99842
2017-07-27T17:19:22.595Z,99842
2017-07-27T17:21:52.496Z,99845
2017-07-27T17:24:22.697Z,99830
2017-07-27T17:26:52.554Z,99828
2017-07-27T17:29:22.420Z,99819
2017-07-27T17:31:52.622Z,99822
2017-07-27T17:34:22.496Z,99817
2017-07-27T17:36:52.710Z,99824
2017-07-27T17:39:22.582Z,99818
2017-07-27T17:41:52.471Z,99811
2017-07-27T17:44:22.679Z,99826
2017-07-27T17:46:52.585Z,99823
2017-07-27T17:49:22.495Z,99830
2017-07-27T17:51:52.712Z,99838
2017-07-27T17:54:22.554Z,99834
2017-07-27T17:56:52.455Z,99843
2017-07-27T17:59:22.681Z,99845
2017-07-27T18:01:52.561Z,99841
2017-07-27T18:04:22.426Z,99829
2017-07-27T18:06:52.686Z,99833
2017-07-27T18:09:22.541Z,99828
2017-07-27T18:11:52.443Z,99832
2017-07-27T18:14:22.696Z,99835
2017-07-27T18:16:52.581Z,99842
2017-07-27T18:19:22.460Z,99841
2017-07-27T18:21:52.709Z,99853
2017-07-27T18:24:22.590Z,99848
2017-07-27T18:26:52.525Z,99845
2017-07-27T18:29:22.825Z,99846
2017-07-27T18:31:52.718Z,99843
2017-07-27T18:34:22.614Z,99847
2017-07-27T18:36:53.218Z,99852
2017-07-27T18:39:23.155Z,99845
2017-07-27T18:41:53.492Z,99846
2017-07-27T18:44:23.373Z,99843
2017-07-27T18:46:53.648Z,99846
2017-07-27T18:49:23.662Z,99850
2017-07-27T18:51:53.591Z,99853
2017-07-27T18:54:23.961Z,99858
2017-07-27T18:56:54.006Z,99850
2017-07-27T18:59:24.759Z,99851
2017-07-27T19:01:54.714Z,99846
2017-07-27T19:04:25.011Z,99841
2017-07-27T19:06:55.915Z,99831
2017-07-27T19:09:26.312Z,99838
2017-07-27T19:11:56.486Z,99840
2017-07-27T19:14:26.890Z,99836
2017-07-27T19:16:56.909Z,99843
2017-07-27T19:19:27.246Z,99846
2017-07-27T19:21:57.612Z,99841
2017-07-27T19:24:28.510Z,99841
2017-07-27T19:26:58.474Z,99838
2017-07-27T19:29:29.672Z,99842
2017-07-27T19:32:01.040Z,99839
2017-07-27T19:34:33.281Z,99835
2017-07-27T19:37:04.116Z,99843
2017-07-27T19:39:34.572Z,99842
2017-07-27T19:42:04.526Z,99843
2017-07-27T19:44:35.785Z,99838
2017-07-27T19:47:05.736Z,99844
2017-07-27T19:49:36.304Z,99847
2017-07-27T19:52:06.288Z,99845
2017-07-27T19:54:36.562Z,99848
2017-07-27T19:57:06.498Z,99844
2017-07-27T19:59:36.828Z,99841
2017-07-27T20:02:06.762Z,99847
2017-07-27T20:04:37.070Z,99854
2017-07-27T20:07:06.985Z,99854
2017-07-27T20:09:37.241Z,99852
2017-07-27T20:12:07.172Z,99860
2017-07-27T20:14:37.386Z,99874
2017-07-27T20:17:07.341Z,99866
2017-07-27T20:19:37.699Z,99865
2017-07-27T20:22:07.572Z,99875
2017-07-27T20:24:38.013Z,99871
2017-07-27T20:27:07.906Z,99879
2017-07-27T20:29:38.183Z,99884
2017-07-27T20:32:08.133Z,99886
2017-07-27T20:34:39.331Z,99871
2017-07-27T20:37:09.298Z,99871
2017-07-27T20:39:39.709Z,99873
2017-07-27T20:42:10.010Z,99870
2017-07-27T20:44:40.246Z,99872
2017-07-27T20:47:10.111Z,99867
2017-07-27T20:49:40.409Z,99865
2017-07-27T20:52:10.340Z,99864
2017-07-27T20:54:40.720Z,99860
2017-07-27T20:57:11.076Z,99867
2017-07-27T20:59:41.390Z,99864
2017-07-27T21:02:11.313Z,99871
2017-07-27T21:04:41.583Z,99871
2017-07-27T21:07:12.117Z,99871
2017-07-27T21:09:42.466Z,99865
2017-07-27T21:12:12.443Z,99859
2017-07-27T21:14:42.683Z,99865
2017-07-27T21:17:12.546Z,99852
2017-07-27T21:19:42.411Z,99852
2017-07-27T21:22:12.623Z,99851
2017-07-27T21:24:42.489Z,99856
2017-07-27T21:27:12.701Z,99854
2017-07-27T21:29:42.563Z,99849
2017-07-27T21:32:12.469Z,99851
2017-07-27T21:34:42.672Z,99853
2017-07-27T21:37:12.591Z,99849
2017-07-27T21:39:42.484Z,99852
2017-07-27T21:42:12.766Z,99847
2017-07-27T21:44:42.650Z,99843
2017-07-27T21:47:12.540Z,99841
2017-07-27T21:49:42.752Z,99855
2017-07-27T21:52:12.609Z,99845
2017-07-27T21:54:42.461Z,99851
2017-07-27T21:57:12.708Z,99850
2017-07-27T21:59:42.566Z,99844
2017-07-27T22:02:12.426Z,99847
2017-07-27T22:04:42.632Z,99845
2017-07-27T22:07:12.490Z,99835
2017-07-27T22:09:43.363Z,99855
2017-07-27T22:12:13.257Z,99855
2017-07-27T22:14:43.466Z,99861
2017-07-27T22:17:13.326Z,99851
2017-07-27T22:19:43.548Z,99852
2017-07-27T22:22:13.427Z,99869
2017-07-27T22:24:43.641Z,99866
2017-07-27T22:27:13.481Z,99874
2017-07-27T22:29:43.349Z,99885
2017-07-27T22:32:13.542Z,99883
2017-07-27T22:34:43.420Z,99880
2017-07-27T22:37:13.595Z,99878
2017-07-27T22:39:43.435Z,99882
2017-07-27T22:42:13.618Z,99881
2017-07-27T22:44:43.572Z,99887
2017-07-27T22:47:14.211Z,99886
2017-07-27T22:49:44.063Z,99898
2017-07-27T22:52:14.254Z,99881
2017-07-27T22:54:44.123Z,99882
2017-07-27T22:57:14.343Z,99874
2017-07-27T22:59:44.214Z,99892
2017-07-27T23:02:14.408Z,99899
2017-07-27T23:04:44.264Z,99893
2017-07-27T23:07:14.484Z,99880
2017-07-27T23:09:44.366Z,99871
2017-07-27T23:12:14.596Z,99873
2017-07-27T23:14:44.459Z,99888
2017-07-27T23:17:14.671Z,99892
2017-07-27T23:19:44.518Z,99904
2017-07-27T23:22:14.393Z,99895
2017-07-27T23:24:44.608Z,99893
2017-07-27T23:27:14.453Z,99901
2017-07-27T23:29:44.653Z,99904
2017-07-27T23:32:14.518Z,99910
2017-07-27T23:34:44.386Z,99912
2017-07-27T23:37:14.611Z,99915
2017-07-27T23:39:44.451Z,99916
2017-07-27T23:42:14.702Z,99911
2017-07-27T23:44:44.602Z,99914
2017-07-27T23:47:14.473Z,99915
2017-07-27T23:49:44.895Z,99920
2017-07-27T23:52:14.760Z,99908
2017-07-27T23:54:44.654Z,99907
2017-07-27T23:57:14.923Z,99902
2017-07-27T23:59:44.790Z,99916
